createdAt,value
2019-04-30T00:00:12.666Z,97651.49
2019-04-30T00:01:55.805Z,97652.86
2019-04-30T00:03:41.628Z,97654.22
2019-04-30T00:05:18.809Z,97652.82
2019-04-30T00:06:55.630Z,97647.29
2019-04-30T00:08:35.521Z,97654.50
2019-04-30T00:10:08.503Z,97661.13
2019-04-30T00:11:45.932Z,97663.08
2019-04-30T00:13:21.112Z,97662.70
2019-04-30T00:14:56.233Z,97667.20
2019-04-30T00:16:39.855Z,97678.46
2019-04-30T00:18:15.568Z,97681.46
2019-04-30T00:19:55.966Z,97682.55
2019-04-30T00:21:27.783Z,97691.34
2019-04-30T00:23:05.044Z,97698.33
2019-04-30T00:24:46.894Z,97704.93
2019-04-30T00:26:19.513Z,97709.54
2019-04-30T00:27:55.953Z,97713.44
2019-04-30T00:29:31.245Z,97714.21
2019-04-30T00:31:06.809Z,97722.60
2019-04-30T00:32:43.673Z,97720.87
2019-04-30T00:34:18.670Z,97732.16
2019-04-30T00:35:55.178Z,97737.98
2019-04-30T00:37:31.097Z,97739.91
2019-04-30T00:39:13.097Z,97732.88
2019-04-30T00:40:45.027Z,97746.63
2019-04-30T00:42:24.382Z,97736.81
2019-04-30T00:43:58.293Z,97745.78
2019-04-30T00:45:40.057Z,97748.30
2019-04-30T00:47:15.411Z,97748.98
2019-04-30T00:48:50.915Z,97749.72
2019-04-30T00:50:29.060Z,97746.22
2019-04-30T00:52:07.764Z,97742.91
2019-04-30T00:53:43.802Z,97750.50
2019-04-30T00:55:20.514Z,97754.59
2019-04-30T00:56:57.494Z,97751.77
2019-04-30T00:58:32.265Z,97753.84
2019-04-30T01:00:08.642Z,97763.34
2019-04-30T01:02:19.982Z,97760.84
2019-04-30T01:03:57.342Z,97762.26
2019-04-30T01:05:32.456Z,97768.72
2019-04-30T01:07:08.715Z,97776.34
2019-04-30T01:08:46.104Z,97785.95
2019-04-30T01:10:24.778Z,97778.61
2019-04-30T01:11:57.685Z,97781.73
2019-04-30T01:13:32.707Z,97784.38
2019-04-30T01:15:11.230Z,97795.48
2019-04-30T01:16:45.119Z,97791.77
2019-04-30T01:18:23.677Z,97796.66
2019-04-30T01:19:59.152Z,97798.45
2019-04-30T01:21:33.988Z,97794.77
2019-04-30T01:23:11.278Z,97800.45
2019-04-30T01:24:46.135Z,97797.70
2019-04-30T01:26:22.809Z,97804.52
2019-04-30T01:27:58.559Z,97809.21
2019-04-30T01:29:40.931Z,97818.72
2019-04-30T01:31:10.688Z,97809.98
2019-04-30T01:32:52.145Z,97818.51
2019-04-30T01:34:22.821Z,97820.11
2019-04-30T01:35:59.536Z,97826.41
2019-04-30T01:37:34.823Z,97821.84
2019-04-30T01:39:09.961Z,97815.64
2019-04-30T01:40:47.505Z,97815.22
2019-04-30T01:42:21.822Z,97821.42
2019-04-30T01:43:58.504Z,97813.32
2019-04-30T01:45:34.245Z,97813.91
2019-04-30T01:47:09.311Z,97820.64
2019-04-30T01:48:50.592Z,97820.25
2019-04-30T01:50:22.042Z,97809.69
2019-04-30T01:51:59.307Z,97809.96
2019-04-30T01:53:34.094Z,97804.33
2019-04-30T01:55:09.556Z,97805.02
2019-04-30T01:56:55.675Z,97797.09
2019-04-30T01:58:41.520Z,97797.52
2019-04-30T02:00:26.109Z,97782.32
2019-04-30T02:01:58.906Z,97781.78
2019-04-30T02:03:33.918Z,97776.98
2019-04-30T02:05:09.032Z,97762.16
2019-04-30T02:06:44.384Z,97758.82
2019-04-30T02:08:19.632Z,97748.08
2019-04-30T02:09:55.276Z,97734.09
2019-04-30T02:11:30.392Z,97723.97
2019-04-30T02:13:05.730Z,97718.95
2019-04-30T02:14:40.848Z,97706.97
2019-04-30T02:16:15.864Z,97696.05
2019-04-30T02:17:50.997Z,97689.17
2019-04-30T02:19:26.400Z,97687.03
2019-04-30T02:21:02.859Z,97680.38
2019-04-30T02:22:38.921Z,97671.47
2019-04-30T02:24:14.340Z,97668.80
2019-04-30T02:25:49.463Z,97659.66
2019-04-30T02:27:24.640Z,97652.73
2019-04-30T02:29:01.017Z,97651.67
2019-04-30T02:30:36.476Z,97644.05
2019-04-30T02:32:11.552Z,97646.70
2019-04-30T02:33:50.267Z,97640.96
2019-04-30T02:35:40.706Z,97633.13
2019-04-30T02:37:25.443Z,97634.48
2019-04-30T02:39:02.746Z,97628.66
2019-04-30T02:40:39.286Z,97619.45
2019-04-30T02:42:14.150Z,97613.23
2019-04-30T02:43:49.799Z,97609.92
2019-04-30T02:45:24.874Z,97602.38
2019-04-30T02:47:00.480Z,97609.41
2019-04-30T02:48:39.300Z,97605.14
2019-04-30T02:50:18.394Z,97602.83
2019-04-30T02:51:50.315Z,97599.69
2019-04-30T02:53:53.411Z,97588.50
2019-04-30T02:56:09.930Z,97585.30
2019-04-30T02:57:44.528Z,97586.00
2019-04-30T02:59:20.285Z,97575.65
2019-04-30T03:00:56.398Z,97575.80
2019-04-30T03:02:32.351Z,97570.83
2019-04-30T03:04:09.910Z,97571.60
2019-04-30T03:05:44.801Z,97559.23
2019-04-30T03:07:20.234Z,97554.34
2019-04-30T03:08:55.300Z,97553.05
2019-04-30T03:10:30.776Z,97551.73
2019-04-30T03:12:06.131Z,97546.50
2019-04-30T03:13:42.871Z,97548.01
2019-04-30T03:15:19.503Z,97548.45
2019-04-30T03:17:03.978Z,97548.81
2019-04-30T03:18:59.558Z,97539.95
2019-04-30T03:20:49.768Z,97540.09
2019-04-30T03:22:29.963Z,97540.54
2019-04-30T03:24:04.391Z,97543.16
2019-04-30T03:25:40.507Z,97534.51
2019-04-30T03:27:15.706Z,97537.23
2019-04-30T03:28:50.720Z,97531.08
2019-04-30T03:30:25.907Z,97532.11
2019-04-30T03:32:03.155Z,97530.23
2019-04-30T03:33:42.184Z,97526.15
2019-04-30T03:35:16.213Z,97513.96
2019-04-30T03:36:51.335Z,97514.44
2019-04-30T03:38:26.639Z,97514.48
2019-04-30T03:40:01.796Z,97518.45
2019-04-30T03:41:40.434Z,97515.25
2019-04-30T03:43:14.233Z,97518.89
2019-04-30T03:44:49.678Z,97522.39
2019-04-30T03:46:25.100Z,97514.30
2019-04-30T03:48:00.536Z,97523.83
2019-04-30T03:49:35.599Z,97523.24
2019-04-30T03:51:10.858Z,97525.74
2019-04-30T03:52:45.921Z,97526.55
2019-04-30T03:54:20.941Z,97525.85
2019-04-30T03:55:56.448Z,97522.33
2019-04-30T03:57:31.489Z,97523.17
2019-04-30T03:59:06.867Z,97523.23
2019-04-30T04:01:01.651Z,97533.36
2019-04-30T04:02:41.966Z,97540.50
2019-04-30T04:04:26.778Z,97546.97
2019-04-30T04:06:24.925Z,97549.22
2019-04-30T04:08:25.112Z,97551.36
2019-04-30T04:10:11.608Z,97554.63
2019-04-30T04:11:47.195Z,97558.45
2019-04-30T04:13:22.242Z,97565.11
2019-04-30T04:15:03.315Z,97557.30
2019-04-30T04:16:41.111Z,97554.62
2019-04-30T04:18:15.766Z,97559.06
2019-04-30T04:19:51.811Z,97564.84
2019-04-30T04:21:29.821Z,97572.39
2019-04-30T04:23:03.867Z,97572.73
2019-04-30T04:24:40.229Z,97568.61
2019-04-30T04:26:15.721Z,97564.75
2019-04-30T04:27:51.214Z,97572.30
2019-04-30T04:29:29.640Z,97569.20
2019-04-30T04:31:03.386Z,97577.63
2019-04-30T04:32:40.595Z,97575.42
2019-04-30T04:34:15.516Z,97573.88
2019-04-30T04:35:50.644Z,97578.14
2019-04-30T04:37:29.453Z,97571.96
2019-04-30T04:39:04.403Z,97570.59
2019-04-30T04:40:40.178Z,97572.63
2019-04-30T04:42:15.280Z,97578.19
2019-04-30T04:43:50.677Z,97573.00
2019-04-30T04:45:26.063Z,97568.69
2019-04-30T04:47:04.162Z,97563.72
2019-04-30T04:48:39.552Z,97562.29
2019-04-30T04:50:15.026Z,97560.52
2019-04-30T04:51:50.120Z,97559.38
2019-04-30T04:53:25.235Z,97561.22
2019-04-30T04:55:00.661Z,97562.25
2019-04-30T04:56:35.856Z,97562.77
2019-04-30T04:58:12.803Z,97561.30
2019-04-30T04:59:49.952Z,97563.94
2019-04-30T05:01:24.981Z,97568.77
2019-04-30T05:03:20.186Z,97564.34
2019-04-30T05:04:59.927Z,97563.84
2019-04-30T05:06:36.322Z,97558.06
2019-04-30T05:08:12.269Z,97558.53
2019-04-30T05:09:48.957Z,97555.08
2019-04-30T05:11:24.076Z,97559.02
2019-04-30T05:13:02.646Z,97554.78
2019-04-30T05:14:39.150Z,97548.23
2019-04-30T05:16:19.114Z,97545.50
2019-04-30T05:17:54.880Z,97538.70
2019-04-30T05:19:30.728Z,97528.91
2019-04-30T05:21:05.841Z,97522.88
2019-04-30T05:22:41.648Z,97525.48
2019-04-30T05:24:16.678Z,97517.54
2019-04-30T05:25:52.596Z,97519.16
2019-04-30T05:27:27.674Z,97501.77
2019-04-30T05:29:04.229Z,97503.73
2019-04-30T05:30:39.406Z,97492.28
2019-04-30T05:32:15.695Z,97496.34
2019-04-30T05:33:54.902Z,97494.26
2019-04-30T05:35:34.072Z,97481.81
2019-04-30T05:37:09.180Z,97481.59
2019-04-30T05:38:44.618Z,97467.55
2019-04-30T05:40:20.522Z,97468.09
2019-04-30T05:41:56.174Z,97463.84
2019-04-30T05:44:15.820Z,97464.47
2019-04-30T05:45:50.959Z,97464.59
2019-04-30T05:47:26.422Z,97461.65
2019-04-30T05:49:01.504Z,97464.95
2019-04-30T05:50:36.598Z,97467.10
2019-04-30T05:52:12.094Z,97470.92
2019-04-30T05:53:49.107Z,97465.70
2019-04-30T05:55:23.921Z,97470.22
2019-04-30T05:56:59.547Z,97475.03
2019-04-30T05:58:34.573Z,97473.03
2019-04-30T06:00:10.266Z,97472.72
2019-04-30T06:01:48.763Z,97467.92
2019-04-30T06:03:30.706Z,97459.81
2019-04-30T06:05:04.270Z,97449.75
2019-04-30T06:06:39.381Z,97450.31
2019-04-30T06:08:19.241Z,97428.02
2019-04-30T06:10:06.654Z,97425.80
2019-04-30T06:12:15.314Z,97421.79
2019-04-30T06:14:18.613Z,97415.20
2019-04-30T06:15:59.416Z,97400.97
2019-04-30T06:17:34.507Z,97408.05
2019-04-30T06:19:11.894Z,97395.42
2019-04-30T06:20:48.469Z,97389.85
2019-04-30T06:22:24.334Z,97382.77
2019-04-30T06:23:59.840Z,97382.88
2019-04-30T06:25:52.904Z,97389.77
2019-04-30T06:27:11.960Z,97379.86
2019-04-30T06:28:49.667Z,97379.41
2019-04-30T06:30:26.708Z,97375.95
2019-04-30T06:32:04.097Z,97379.86
2019-04-30T06:33:39.539Z,97380.26
2019-04-30T06:35:14.662Z,97375.38
2019-04-30T06:36:53.180Z,97377.80
2019-04-30T06:38:30.324Z,97376.89
2019-04-30T06:40:11.769Z,97382.69
2019-04-30T06:41:46.988Z,97383.71
2019-04-30T06:43:22.215Z,97378.09
2019-04-30T06:44:59.120Z,97374.96
2019-04-30T06:46:34.326Z,97375.64
2019-04-30T06:48:09.922Z,97375.02
2019-04-30T06:49:46.555Z,97376.78
2019-04-30T06:51:21.698Z,97380.78
2019-04-30T06:53:01.033Z,97379.69
2019-04-30T06:54:39.281Z,97385.91
2019-04-30T06:56:18.968Z,97375.22
2019-04-30T06:58:11.450Z,97389.46
2019-04-30T06:59:34.397Z,97377.97
2019-04-30T07:01:09.889Z,97382.94
2019-04-30T07:02:49.467Z,97385.24
2019-04-30T07:04:25.730Z,97378.52
2019-04-30T07:06:02.273Z,97379.83
2019-04-30T07:07:41.678Z,97377.31
2019-04-30T07:09:36.365Z,97387.70
2019-04-30T07:11:36.051Z,97380.06
2019-04-30T07:13:18.774Z,97383.66
2019-04-30T07:14:54.127Z,97382.81
2019-04-30T07:16:29.972Z,97379.14
2019-04-30T07:18:06.122Z,97381.22
2019-04-30T07:19:53.190Z,97386.56
2019-04-30T07:21:19.772Z,97386.89
2019-04-30T07:23:09.320Z,97386.99
2019-04-30T07:24:46.677Z,97375.90
2019-04-30T07:26:24.748Z,97377.91
2019-04-30T07:28:03.238Z,97382.69
2019-04-30T07:29:41.462Z,97384.95
2019-04-30T07:31:19.734Z,97382.81
2019-04-30T07:32:55.189Z,97382.14
2019-04-30T07:34:37.063Z,97379.72
2019-04-30T07:36:10.593Z,97370.41
2019-04-30T07:37:45.692Z,97395.13
2019-04-30T07:39:23.520Z,97390.15
2019-04-30T07:40:59.122Z,97389.39
2019-04-30T07:42:44.500Z,97392.34
2019-04-30T07:44:31.016Z,97396.17
2019-04-30T07:45:59.773Z,97404.83
2019-04-30T07:47:35.445Z,97397.11
2019-04-30T07:49:10.576Z,97390.53
2019-04-30T07:50:53.572Z,97390.64
2019-04-30T07:52:33.314Z,97404.67
2019-04-30T07:54:09.155Z,97407.15
2019-04-30T07:55:49.236Z,97404.56
2019-04-30T07:57:29.183Z,97406.64
2019-04-30T07:59:05.238Z,97393.61
2019-04-30T08:00:40.496Z,97388.70
2019-04-30T08:02:20.865Z,97390.62
2019-04-30T08:04:56.685Z,97388.35
2019-04-30T08:06:32.139Z,97385.23
2019-04-30T08:08:20.269Z,97390.53
2019-04-30T08:09:44.903Z,97396.53
2019-04-30T08:11:26.496Z,97391.68
2019-04-30T08:13:10.329Z,97386.25
2019-04-30T08:14:42.043Z,97385.28
2019-04-30T08:16:18.670Z,97386.98
2019-04-30T08:18:03.424Z,97397.56
2019-04-30T08:19:38.791Z,97392.41
2019-04-30T08:21:19.050Z,97390.92
2019-04-30T08:23:12.529Z,97388.70
2019-04-30T08:24:38.974Z,97388.92
2019-04-30T08:26:14.743Z,97388.52
2019-04-30T08:27:49.776Z,97387.70
2019-04-30T08:29:25.218Z,97392.27
2019-04-30T08:31:02.992Z,97393.91
2019-04-30T08:32:43.442Z,97391.33
2019-04-30T08:34:20.155Z,97386.53
2019-04-30T08:35:55.457Z,97398.67
2019-04-30T08:37:30.874Z,97394.58
2019-04-30T08:39:09.684Z,97395.39
2019-04-30T08:40:57.663Z,97395.89
2019-04-30T08:42:33.764Z,97401.10
2019-04-30T08:44:12.381Z,97396.02
2019-04-30T08:45:52.834Z,97395.37
2019-04-30T08:47:33.868Z,97409.98
2019-04-30T08:49:13.621Z,97403.28
2019-04-30T08:50:49.512Z,97401.41
2019-04-30T08:52:25.394Z,97402.17
2019-04-30T08:54:00.961Z,97402.70
2019-04-30T08:55:36.237Z,97396.43
2019-04-30T08:57:11.347Z,97393.81
2019-04-30T08:58:50.000Z,97400.67
2019-04-30T09:00:25.089Z,97399.98
2019-04-30T09:02:15.349Z,97384.73
2019-04-30T09:03:40.047Z,97394.21
2019-04-30T09:05:21.738Z,97388.75
2019-04-30T09:06:59.820Z,97395.73
2019-04-30T09:08:35.112Z,97391.92
2019-04-30T09:10:10.160Z,97384.98
2019-04-30T09:11:52.992Z,97388.54
2019-04-30T09:13:22.702Z,97389.58
2019-04-30T09:14:59.442Z,97387.46
2019-04-30T09:16:34.694Z,97388.34
2019-04-30T09:18:12.468Z,97388.69
2019-04-30T09:19:49.459Z,97390.66
2019-04-30T09:21:26.048Z,97388.05
2019-04-30T09:23:01.131Z,97385.77
2019-04-30T09:24:39.171Z,97386.35
2019-04-30T09:26:19.621Z,97388.05
2019-04-30T09:27:58.576Z,97384.39
2019-04-30T09:29:31.627Z,97388.04
2019-04-30T09:31:08.727Z,97381.35
2019-04-30T09:32:44.720Z,97382.69
2019-04-30T09:34:21.131Z,97384.98
2019-04-30T09:35:59.635Z,97386.31
2019-04-30T09:37:38.991Z,97388.50
2019-04-30T09:39:22.905Z,97388.63
2019-04-30T09:40:59.384Z,97390.52
2019-04-30T09:42:34.644Z,97387.41
2019-04-30T09:44:12.176Z,97383.19
2019-04-30T09:45:49.564Z,97384.98
2019-04-30T09:47:29.572Z,97386.36
2019-04-30T09:49:09.654Z,97396.99
2019-04-30T09:50:45.095Z,97388.56
2019-04-30T09:52:21.223Z,97389.18
2019-04-30T09:54:00.597Z,97397.28
2019-04-30T09:55:33.833Z,97390.12
2019-04-30T09:57:11.447Z,97389.02
2019-04-30T09:58:49.302Z,97394.17
2019-04-30T10:00:29.302Z,97391.41
2019-04-30T10:02:09.149Z,97385.25
2019-04-30T10:03:46.058Z,97381.39
2019-04-30T10:05:22.754Z,97390.44
2019-04-30T10:06:59.556Z,97388.69
2019-04-30T10:08:48.199Z,97385.13
2019-04-30T10:10:22.064Z,97381.55
2019-04-30T10:12:14.807Z,97384.52
2019-04-30T10:13:49.883Z,97384.48
2019-04-30T10:15:50.006Z,97384.81
2019-04-30T10:17:41.586Z,97376.67
2019-04-30T10:19:19.141Z,97378.72
2019-04-30T10:21:00.916Z,97376.58
2019-04-30T10:22:39.933Z,97376.09
2019-04-30T10:24:15.714Z,97371.84
2019-04-30T10:25:52.043Z,97366.38
2019-04-30T10:27:29.314Z,97361.36
2019-04-30T10:29:10.192Z,97355.47
2019-04-30T10:30:46.048Z,97363.01
2019-04-30T10:32:25.947Z,97361.94
2019-04-30T10:34:02.008Z,97367.60
2019-04-30T10:35:38.633Z,97358.03
2019-04-30T10:37:14.632Z,97354.38
2019-04-30T10:38:52.290Z,97359.25
2019-04-30T10:40:28.699Z,97350.53
2019-04-30T10:42:06.616Z,97355.31
2019-04-30T10:43:49.198Z,97348.41
2019-04-30T10:45:33.273Z,97343.83
2019-04-30T10:47:11.469Z,97346.36
2019-04-30T10:48:46.734Z,97344.61
2019-04-30T10:50:28.299Z,97350.73
2019-04-30T10:52:03.403Z,97349.83
2019-04-30T10:53:39.526Z,97339.77
2019-04-30T10:55:15.176Z,97343.17
2019-04-30T10:56:52.204Z,97334.92
2019-04-30T10:58:28.497Z,97326.21
2019-04-30T11:00:07.756Z,97322.27
2019-04-30T11:01:52.655Z,97336.70
2019-04-30T11:03:32.012Z,97324.75
2019-04-30T11:05:10.500Z,97329.66
2019-04-30T11:07:08.516Z,97327.39
2019-04-30T11:08:46.045Z,97325.31
2019-04-30T11:10:21.261Z,97321.73
2019-04-30T11:11:57.108Z,97337.23
2019-04-30T11:13:32.811Z,97324.33
2019-04-30T11:15:14.498Z,97329.55
2019-04-30T11:16:51.461Z,97319.70
2019-04-30T11:18:30.796Z,97314.75
2019-04-30T11:20:10.411Z,97311.41
2019-04-30T11:21:45.833Z,97303.75
2019-04-30T11:23:27.557Z,97313.52
2019-04-30T11:25:02.935Z,97308.55
2019-04-30T11:26:41.682Z,97309.02
2019-04-30T11:28:31.867Z,97310.08
2019-04-30T11:30:20.725Z,97297.08
2019-04-30T11:32:08.003Z,97303.55
2019-04-30T11:33:50.898Z,97294.38
2019-04-30T11:35:29.996Z,97300.11
2019-04-30T11:37:07.464Z,97296.59
2019-04-30T11:38:43.038Z,97290.81
2019-04-30T11:40:18.277Z,97284.95
2019-04-30T11:41:56.317Z,97291.38
2019-04-30T11:43:35.038Z,97287.93
2019-04-30T11:45:13.269Z,97281.30
2019-04-30T11:47:22.474Z,97286.84
2019-04-30T11:48:58.716Z,97281.53
2019-04-30T11:50:43.148Z,97295.56
2019-04-30T11:52:18.219Z,97290.73
2019-04-30T11:53:59.182Z,97285.45
2019-04-30T11:55:36.372Z,97274.00
2019-04-30T11:57:21.182Z,97280.36
2019-04-30T11:58:58.739Z,97279.53
2019-04-30T12:00:39.483Z,97274.72
2019-04-30T12:02:35.090Z,97281.16
2019-04-30T12:04:16.141Z,97279.60
2019-04-30T12:05:58.939Z,97283.70
2019-04-30T12:07:51.972Z,97277.05
2019-04-30T12:09:55.793Z,97275.48
2019-04-30T12:11:35.321Z,97278.94
2019-04-30T12:13:31.629Z,97273.84
2019-04-30T12:15:10.011Z,97271.20
2019-04-30T12:16:50.724Z,97263.78
2019-04-30T12:18:26.508Z,97262.15
2019-04-30T12:20:01.665Z,97269.33
2019-04-30T12:21:37.596Z,97261.25
2019-04-30T12:23:13.423Z,97258.53
2019-04-30T12:25:02.535Z,97267.68
2019-04-30T12:26:29.960Z,97266.41
2019-04-30T12:28:05.098Z,97258.31
2019-04-30T12:29:43.467Z,97266.75
2019-04-30T12:31:20.528Z,97261.98
2019-04-30T12:32:59.072Z,97252.38
2019-04-30T12:34:32.911Z,97263.02
2019-04-30T12:36:09.700Z,97258.47
2019-04-30T12:37:58.918Z,97255.29
2019-04-30T12:39:40.300Z,97267.17
2019-04-30T12:41:18.578Z,97261.78
2019-04-30T12:42:59.866Z,97256.19
2019-04-30T12:44:54.586Z,97248.84
2019-04-30T12:46:31.404Z,97247.64
2019-04-30T12:48:20.025Z,97235.43
2019-04-30T12:50:15.202Z,97241.25
2019-04-30T12:52:09.481Z,97246.99
2019-04-30T12:53:52.960Z,97242.41
2019-04-30T12:56:01.643Z,97256.02
2019-04-30T12:57:56.139Z,97248.77
2019-04-30T12:59:26.756Z,97243.30
2019-04-30T13:01:04.764Z,97241.00
2019-04-30T13:02:42.817Z,97243.79
2019-04-30T13:04:19.386Z,97240.69
2019-04-30T13:05:55.230Z,97236.49
2019-04-30T13:07:40.115Z,97234.97
2019-04-30T13:09:16.031Z,97235.61
2019-04-30T13:10:54.308Z,97229.21
2019-04-30T13:12:30.444Z,97230.31
2019-04-30T13:14:06.815Z,97236.19
2019-04-30T13:15:46.860Z,97234.10
2019-04-30T13:17:25.186Z,97236.73
2019-04-30T13:19:03.262Z,97228.14
2019-04-30T13:20:46.347Z,97235.00
2019-04-30T13:22:23.600Z,97229.61
2019-04-30T13:23:58.799Z,97226.68
2019-04-30T13:25:35.773Z,97224.27
2019-04-30T13:27:16.203Z,97229.75
2019-04-30T13:29:05.373Z,97226.06
2019-04-30T13:30:44.246Z,97229.41
2019-04-30T13:32:30.033Z,97227.74
2019-04-30T13:34:35.070Z,97214.51
2019-04-30T13:36:12.452Z,97224.91
2019-04-30T13:37:58.967Z,97223.78
2019-04-30T13:39:49.903Z,97223.19
2019-04-30T13:41:29.645Z,97220.68
2019-04-30T13:43:08.282Z,97225.63
2019-04-30T13:44:46.289Z,97215.10
2019-04-30T13:46:28.477Z,97206.45
2019-04-30T13:48:10.560Z,97210.73
2019-04-30T13:49:49.902Z,97212.84
2019-04-30T13:51:27.864Z,97206.26
2019-04-30T13:53:08.757Z,97207.59
2019-04-30T13:54:46.321Z,97202.96
2019-04-30T13:56:25.792Z,97196.58
2019-04-30T13:58:02.812Z,97191.41
2019-04-30T13:59:40.997Z,97193.30
2019-04-30T14:01:39.079Z,97191.30
2019-04-30T14:03:40.790Z,97192.38
2019-04-30T14:05:20.862Z,97185.31
2019-04-30T14:07:15.310Z,97187.33
2019-04-30T14:08:52.958Z,97187.94
2019-04-30T14:10:32.798Z,97177.66
2019-04-30T14:12:10.074Z,97184.01
2019-04-30T14:13:45.294Z,97178.80
2019-04-30T14:15:21.506Z,97186.91
2019-04-30T14:16:58.704Z,97179.76
2019-04-30T14:18:39.090Z,97176.66
2019-04-30T14:20:16.111Z,97175.66
2019-04-30T14:21:54.165Z,97182.61
2019-04-30T14:23:29.270Z,97181.92
2019-04-30T14:25:06.420Z,97179.16
2019-04-30T14:26:41.695Z,97182.83
2019-04-30T14:28:19.709Z,97178.25
2019-04-30T14:29:56.331Z,97178.94
2019-04-30T14:31:31.696Z,97177.91
2019-04-30T14:33:09.429Z,97174.88
2019-04-30T14:34:50.707Z,97169.39
2019-04-30T14:36:25.918Z,97161.08
2019-04-30T14:38:09.053Z,97154.18
2019-04-30T14:40:00.655Z,97160.24
2019-04-30T14:41:39.664Z,97163.64
2019-04-30T14:43:25.541Z,97154.27
2019-04-30T14:45:17.277Z,97163.52
2019-04-30T14:47:06.663Z,97158.44
2019-04-30T14:48:48.110Z,97153.61
2019-04-30T14:50:29.806Z,97152.92
2019-04-30T14:52:09.177Z,97152.01
2019-04-30T14:54:14.695Z,97151.20
2019-04-30T14:56:11.736Z,97155.04
2019-04-30T14:58:20.433Z,97161.00
2019-04-30T15:00:20.476Z,97162.80
2019-04-30T15:02:08.892Z,97157.63
2019-04-30T15:03:43.661Z,97151.63
2019-04-30T15:05:22.640Z,97160.14
2019-04-30T15:06:58.789Z,97151.52
2019-04-30T15:08:34.200Z,97152.69
2019-04-30T15:10:14.008Z,97148.01
2019-04-30T15:11:58.540Z,97155.11
2019-04-30T15:13:39.329Z,97156.13
2019-04-30T15:15:20.849Z,97155.83
2019-04-30T15:16:56.731Z,97163.45
2019-04-30T15:18:35.891Z,97157.37
2019-04-30T15:20:15.575Z,97155.67
2019-04-30T15:21:51.066Z,97153.83
2019-04-30T15:23:58.568Z,97152.77
2019-04-30T15:25:34.324Z,97153.18
2019-04-30T15:27:09.358Z,97146.32
2019-04-30T15:28:44.692Z,97152.20
2019-04-30T15:30:23.797Z,97141.58
2019-04-30T15:31:59.374Z,97144.69
2019-04-30T15:34:02.550Z,97141.77
2019-04-30T15:35:32.965Z,97149.03
2019-04-30T15:37:21.189Z,97151.20
2019-04-30T15:39:22.546Z,97150.37
2019-04-30T15:40:59.796Z,97147.95
2019-04-30T15:42:36.541Z,97144.08
2019-04-30T15:44:22.109Z,97144.24
2019-04-30T15:45:53.935Z,97140.09
2019-04-30T15:47:32.882Z,97140.50
2019-04-30T15:49:24.492Z,97135.41
2019-04-30T15:51:04.184Z,97148.95
2019-04-30T15:52:45.426Z,97142.12
2019-04-30T15:54:20.979Z,97144.77
2019-04-30T15:56:01.352Z,97146.08
2019-04-30T15:58:00.268Z,97142.44
2019-04-30T15:59:53.151Z,97151.70
2019-04-30T16:01:33.578Z,97149.35
2019-04-30T16:03:24.681Z,97148.62
2019-04-30T16:05:10.670Z,97143.13
2019-04-30T16:06:45.756Z,97140.98
2019-04-30T16:08:32.229Z,97137.29
2019-04-30T16:10:21.282Z,97140.64
2019-04-30T16:12:21.899Z,97134.41
2019-04-30T16:14:21.294Z,97138.17
2019-04-30T16:15:56.513Z,97129.86
2019-04-30T16:17:36.621Z,97125.54
2019-04-30T16:19:11.848Z,97121.81
2019-04-30T16:20:48.104Z,97123.38
2019-04-30T16:22:24.359Z,97130.23
2019-04-30T16:23:59.581Z,97125.45
2019-04-30T16:25:36.631Z,97127.37
2019-04-30T16:27:14.605Z,97132.63
2019-04-30T16:28:49.727Z,97137.81
2019-04-30T16:30:25.027Z,97139.73
2019-04-30T16:32:00.200Z,97131.52
2019-04-30T16:33:35.258Z,97136.86
2019-04-30T16:35:13.558Z,97133.43
2019-04-30T16:36:49.556Z,97132.38
2019-04-30T16:39:36.080Z,97136.11
2019-04-30T16:41:11.878Z,97134.89
2019-04-30T16:42:48.950Z,97129.42
2019-04-30T16:44:37.251Z,97127.17
2019-04-30T16:46:16.982Z,97122.27
2019-04-30T16:47:56.663Z,97125.14
2019-04-30T16:49:34.061Z,97116.16
2019-04-30T16:51:09.461Z,97115.01
2019-04-30T16:52:44.711Z,97115.13
2019-04-30T16:54:21.017Z,97115.01
2019-04-30T16:55:58.542Z,97106.98
2019-04-30T16:57:49.821Z,97118.34
2019-04-30T16:59:35.839Z,97118.03
2019-04-30T17:01:18.237Z,97115.36
2019-04-30T17:03:00.777Z,97115.88
2019-04-30T17:04:56.422Z,97121.00
2019-04-30T17:06:45.218Z,97118.80
2019-04-30T17:08:35.222Z,97122.38
2019-04-30T17:10:34.771Z,97125.21
2019-04-30T17:12:38.580Z,97126.38
2019-04-30T17:14:12.260Z,97123.39
2019-04-30T17:15:52.526Z,97124.32
2019-04-30T17:17:34.598Z,97124.57
2019-04-30T17:19:12.767Z,97127.55
2019-04-30T17:20:50.605Z,97125.46
2019-04-30T17:22:29.220Z,97124.10
2019-04-30T17:24:10.199Z,97127.30
2019-04-30T17:25:53.930Z,97125.19
2019-04-30T17:27:30.142Z,97122.53
2019-04-30T17:29:05.443Z,97120.70
2019-04-30T17:30:41.046Z,97120.02
2019-04-30T17:32:18.660Z,97120.48
2019-04-30T17:33:57.463Z,97119.79
2019-04-30T17:35:45.114Z,97117.98
2019-04-30T17:37:20.560Z,97119.30
2019-04-30T17:38:55.811Z,97123.18
2019-04-30T17:40:30.886Z,97120.41
2019-04-30T17:42:09.925Z,97120.87
2019-04-30T17:43:49.588Z,97123.70
2019-04-30T17:45:29.214Z,97122.23
2019-04-30T17:47:09.034Z,97121.41
2019-04-30T17:48:49.407Z,97124.63
2019-04-30T17:50:29.652Z,97123.20
2019-04-30T17:52:08.874Z,97127.18
2019-04-30T17:54:10.977Z,97120.29
2019-04-30T17:55:48.972Z,97128.21
2019-04-30T17:57:32.310Z,97126.70
2019-04-30T17:59:08.049Z,97126.42
2019-04-30T18:00:51.245Z,97128.30
2019-04-30T18:02:32.814Z,97129.22
2019-04-30T18:04:11.198Z,97128.61
2019-04-30T18:05:49.217Z,97129.77
2019-04-30T18:07:29.545Z,97136.23
2019-04-30T18:09:10.823Z,97129.16
2019-04-30T18:10:45.329Z,97129.34
2019-04-30T18:12:23.479Z,97131.48
2019-04-30T18:14:06.001Z,97133.20
2019-04-30T18:15:42.056Z,97137.50
2019-04-30T18:17:22.754Z,97139.96
2019-04-30T18:19:22.131Z,97138.88
2019-04-30T18:21:13.596Z,97134.77
2019-04-30T18:23:00.067Z,97136.41
2019-04-30T18:25:06.072Z,97140.86
2019-04-30T18:26:52.983Z,97141.91
2019-04-30T18:28:33.803Z,97138.08
2019-04-30T18:30:13.730Z,97137.61
2019-04-30T18:31:59.655Z,97140.92
2019-04-30T18:33:37.702Z,97139.53
2019-04-30T18:35:15.193Z,97142.13
2019-04-30T18:36:59.369Z,97135.56
2019-04-30T18:38:35.719Z,97144.52
2019-04-30T18:40:14.183Z,97140.81
2019-04-30T18:41:51.062Z,97136.83
2019-04-30T18:43:28.616Z,97136.64
2019-04-30T18:45:06.278Z,97140.13
2019-04-30T18:46:49.106Z,97139.64
2019-04-30T18:48:24.500Z,97142.06
2019-04-30T18:50:03.927Z,97141.39
2019-04-30T18:51:42.732Z,97143.17
2019-04-30T18:53:22.631Z,97145.06
2019-04-30T18:54:59.540Z,97146.16
2019-04-30T18:56:39.197Z,97150.98
2019-04-30T18:58:19.703Z,97156.81
2019-04-30T18:59:54.974Z,97155.84
2019-04-30T19:01:34.731Z,97155.28
2019-04-30T19:03:21.581Z,97155.35
2019-04-30T19:04:59.518Z,97156.66
2019-04-30T19:06:35.766Z,97155.22
2019-04-30T19:08:20.319Z,97160.33
2019-04-30T19:10:22.626Z,97157.91
2019-04-30T19:12:41.490Z,97165.97
2019-04-30T19:14:44.834Z,97172.09
2019-04-30T19:16:41.883Z,97172.50
2019-04-30T19:18:33.106Z,97173.48
2019-04-30T19:20:28.764Z,97179.11
2019-04-30T19:22:18.585Z,97175.93
2019-04-30T19:24:00.839Z,97179.11
2019-04-30T19:25:39.782Z,97183.38
2019-04-30T19:27:18.678Z,97180.09
2019-04-30T19:28:56.102Z,97185.12
2019-04-30T19:30:33.337Z,97190.16
2019-04-30T19:32:15.017Z,97191.04
2019-04-30T19:33:50.265Z,97190.88